Terminal Aerodrome Forecast
Issued by NWS Charleston, WV

Current Version | Previous Version | Graphics & Text | Print | Product List | Glossary On
Versions: 1 2 3 4 5 6 7 8 9 10 11 12 13 14 15 16 17 18 19 20 21
000
FTUS41 KRLX 111500 AAA
TAFEKN
TAF AMD
KEKN 111558Z 1116/1212 VRB05KT P6SM SKC
     FM120500 00000KT 3SM BR FEW250
     FM120600 00000KT 1SM BR FEW001
     FM120800 00000KT 1/4SM FG OVC001=

USA.gov is the U.S. government's official web portal to all federal, state and local government web resources and services.